This is the latest recevied weather packets stored in our database for station/object DL1DH-17. If no packets are shown the sender has not sent any weather packets the latest 10 day(s).
| Time | Temp. | Humidity | Pressure | Rain* | Wind** | Luminosity | Snow |
|---|---|---|---|---|---|---|---|
| 1777578702 | 10.56° C | 31% | 987.9 hPa | - | - | - | - |
| 1777577862 | 10.56° C | 30% | 987.8 hPa | - | - | - | - |
| 1777577021 | 11.11° C | 29% | 987.7 hPa | - | - | - | - |
| 1777576181 | 11.11° C | 29% | 987.7 hPa | - | - | - | - |
| 1777575341 | 11.67° C | 28% | 987.4 hPa | - | - | - | - |
| 1777574501 | 12.22° C | 27% | 987.3 hPa | - | - | - | - |
| 1777573661 | 12.22° C | 26% | 987.2 hPa | - | - | - | - |
| 1777572821 | 12.78° C | 24% | 987 hPa | - | - | - | - |
| 1777571981 | 13.33° C | 23% | 987 hPa | - | - | - | - |
| 1777571141 | 13.89° C | 22% | 987 hPa | - | - | - | - |
| 1777570301 | 14.44° C | 21% | 987 hPa | - | - | - | - |
| 1777569461 | 14.44° C | 21% | 987.1 hPa | - | - | - | - |
| 1777568622 | 15° C | 20% | 987 hPa | - | - | - | - |
| 1777567780 | 15° C | 20% | 987 hPa | - | - | - | - |
| 1777566940 | 15° C | 20% | 987.1 hPa | - | - | - | - |
| 1777566100 | 15° C | 20% | 987.1 hPa | - | - | - | - |
| 1777565260 | 15° C | 19% | 987.1 hPa | - | - | - | - |
| 1777564420 | 15° C | 19% | 987.1 hPa | - | - | - | - |
| 1777563580 | 15° C | 19% | 987.2 hPa | - | - | - | - |
| 1777562740 | 15° C | 20% | 987.1 hPa | - | - | - | - |
| 1777561900 | 15° C | 19% | 987.2 hPa | - | - | - | - |
| 1777561060 | 14.44° C | 21% | 987.3 hPa | - | - | - | - |
| 1777560224 | 14.44° C | 21% | 987.4 hPa | - | - | - | - |
| 1777559379 | 14.44° C | 21% | 987.5 hPa | - | - | - | - |
| 1777558540 | 13.89° C | 23% | 987.7 hPa | - | - | - | - |
* Rain since midnight (hover to see other rain measurements)
** Current wind speed in m/s (hover to see current wind gust speed)